Time;durP1;ratioP1;P1;durP2;ratioP2;P2;SDS_P1;SDS_P2;PMS_P1;PMS_P2;Temp;Humidity;BMP_temperature;BMP_pressure;BME280_temperature;BME280_humidity;BME280_pressure;Samples;Min_cycle;Max_cycle;Signal;HPM_P1;HPM_P2
2022/10/03 00:02:07;;;;;;;4.80;2.10;;;9.50;99.90;;;;;;5024890;28;20091;-60
2022/10/03 00:04:59;;;;;;;12.55;2.65;;;9.50;99.90;;;;;;5018798;28;20034;-60
2022/10/03 00:07:45;;;;;;;8.55;2.20;;;9.50;99.90;;;;;;5026019;28;20021;-60
2022/10/03 00:10:29;;;;;;;10.48;2.00;;;9.50;99.90;;;;;;5022133;28;20038;-60
2022/10/03 00:12:57;;;;;;;12.50;2.40;;;9.50;99.90;;;;;;5027670;28;20037;-61
2022/10/03 00:15:55;;;;;;;12.38;2.33;;;9.50;99.90;;;;;;5035728;28;20022;-60
2022/10/03 00:18:44;;;;;;;11.77;1.75;;;9.50;99.90;;;;;;5012902;28;20046;-59
2022/10/03 00:21:31;;;;;;;10.88;2.53;;;9.50;99.90;;;;;;5023369;28;20053;-59
2022/10/03 00:24:21;;;;;;;11.32;1.95;;;9.50;99.90;;;;;;5028426;28;20595;-60
2022/10/03 00:27:11;;;;;;;13.18;2.00;;;9.50;99.90;;;;;;5035286;28;20048;-61
2022/10/03 00:30:04;;;;;;;11.43;1.88;;;9.50;99.90;;;;;;5019996;28;20123;-60
2022/10/03 00:32:52;;;;;;;12.23;2.58;;;9.50;99.90;;;;;;5025355;28;20021;-60
2022/10/03 00:35:34;;;;;;;12.15;2.17;;;9.60;99.90;;;;;;5016505;28;20037;-60
2022/10/03 00:38:43;;;;;;;15.07;2.38;;;9.60;99.90;;;;;;5025157;28;20033;-60
2022/10/03 00:41:35;;;;;;;10.27;1.63;;;9.70;99.90;;;;;;5010215;28;20041;-60
2022/10/03 00:44:44;;;;;;;11.77;2.88;;;9.80;99.90;;;;;;5027447;28;20029;-60
2022/10/03 00:47:44;;;;;;;9.40;1.80;;;9.90;99.90;;;;;;5023344;28;20033;-60
2022/10/03 00:50:21;;;;;;;9.73;1.88;;;10.00;99.90;;;;;;5027359;28;20030;-60
2022/10/03 00:53:36;;;;;;;12.55;2.63;;;10.10;99.90;;;;;;5029398;28;20038;-60
2022/10/03 00:56:44;;;;;;;9.45;2.05;;;10.20;99.90;;;;;;5010366;28;20488;-60
2022/10/03 00:59:27;;;;;;;8.35;1.85;;;10.30;99.90;;;;;;5028560;28;20038;-60
2022/10/03 01:01:53;;;;;;;10.30;2.00;;;10.40;99.90;;;;;;5025723;28;20037;-59
2022/10/03 01:04:54;;;;;;;9.43;1.70;;;10.50;99.90;;;;;;5029417;28;20029;-60
2022/10/03 01:07:57;;;;;;;8.45;2.30;;;10.60;99.90;;;;;;5032597;28;20091;-60
2022/10/03 01:10:34;;;;;;;8.65;2.03;;;10.60;99.90;;;;;;5030116;28;20026;-60
2022/10/03 01:13:32;;;;;;;11.73;2.15;;;10.70;99.90;;;;;;5025371;28;20740;-60
2022/10/03 01:16:22;;;;;;;6.75;1.67;;;10.70;99.90;;;;;;5009563;28;20390;-60
2022/10/03 01:19:01;;;;;;;12.25;2.25;;;10.80;99.90;;;;;;5049084;28;20096;-60
2022/10/03 01:21:48;;;;;;;7.97;1.80;;;10.80;99.90;;;;;;5017032;28;20028;-60
2022/10/03 01:24:52;;;;;;;10.32;2.25;;;10.90;99.90;;;;;;5028388;28;20183;-60
2022/10/03 01:30:39;;;;;;;10.82;2.00;;;11.00;99.90;;;;;;5009394;28;20092;-61
2022/10/03 01:33:29;;;;;;;16.33;2.97;;;11.00;99.90;;;;;;5025578;28;20053;-56
2022/10/03 01:36:13;;;;;;;13.30;2.05;;;11.10;99.90;;;;;;5007344;28;20624;-60
2022/10/03 01:38:46;;;;;;;11.68;2.63;;;11.10;99.90;;;;;;5048815;28;20028;-60
2022/10/03 01:41:32;;;;;;;8.50;2.50;;;11.10;99.90;;;;;;5011572;28;20068;-60
2022/10/03 01:44:11;;;;;;;12.70;3.22;;;11.10;99.90;;;;;;5034384;28;20063;-59
2022/10/03 01:46:51;;;;;;;14.13;3.38;;;11.20;99.90;;;;;;5018123;28;20033;-60
2022/10/03 01:49:32;;;;;;;13.63;2.80;;;11.20;99.90;;;;;;5048594;28;20029;-60
2022/10/03 01:52:14;;;;;;;14.98;3.10;;;11.20;99.90;;;;;;5023309;28;20048;-60
2022/10/03 01:55:01;;;;;;;8.93;1.83;;;11.20;99.90;;;;;;5008890;28;20045;-60
2022/10/03 01:57:52;;;;;;;10.25;1.75;;;11.30;99.90;;;;;;5030992;28;20108;-61
2022/10/03 02:00:34;;;;;;;7.15;2.28;;;11.30;99.90;;;;;;5010303;28;20057;-60
2022/10/03 02:03:10;;;;;;;8.40;2.22;;;11.30;99.90;;;;;;5030245;28;20108;-60
2022/10/03 02:06:05;;;;;;;13.52;2.08;;;11.30;99.90;;;;;;5048471;28;20109;-60
2022/10/03 02:09:02;;;;;;;11.73;2.47;;;11.30;99.90;;;;;;5008766;28;20502;-60
2022/10/03 02:11:44;;;;;;;8.50;2.17;;;11.30;99.90;;;;;;5010337;28;20010;-61
2022/10/03 02:14:28;;;;;;;8.23;2.00;;;11.30;99.90;;;;;;5028467;28;20018;-60
2022/10/03 02:17:31;;;;;;;8.32;2.03;;;11.30;99.90;;;;;;5038728;28;20511;-61
2022/10/03 02:20:24;;;;;;;11.02;2.75;;;11.30;99.90;;;;;;5047312;28;20037;-60
2022/10/03 02:22:53;;;;;;;9.35;2.05;;;11.30;99.90;;;;;;5021585;28;20128;-60
2022/10/03 02:25:32;;;;;;;7.13;2.20;;;11.30;99.90;;;;;;5048471;28;20108;-60
2022/10/03 02:28:13;;;;;;;9.68;2.30;;;11.30;99.90;;;;;;5022022;28;20040;-60
2022/10/03 02:30:53;;;;;;;9.80;2.60;;;11.30;99.90;;;;;;5008784;28;20030;-60
2022/10/03 02:33:57;;;;;;;11.02;1.98;;;11.30;99.90;;;;;;5027803;28;20401;-60
2022/10/03 02:36:42;;;;;;;8.82;2.08;;;11.30;99.90;;;;;;5042204;28;20028;-61
2022/10/03 02:39:34;;;;;;;11.13;1.88;;;11.30;99.90;;;;;;5028185;28;20033;-61
2022/10/03 02:42:37;;;;;;;9.93;1.70;;;11.30;99.90;;;;;;5013601;28;20033;-60
2022/10/03 02:45:45;;;;;;;11.88;2.15;;;11.30;99.90;;;;;;5008449;28;20540;-61
2022/10/03 02:48:41;;;;;;;8.25;1.73;;;11.40;99.90;;;;;;5023156;28;20097;-61
2022/10/03 02:51:16;;;;;;;9.32;2.22;;;11.30;99.90;;;;;;5008572;28;20030;-60
2022/10/03 02:54:16;;;;;;;10.03;1.97;;;11.40;99.90;;;;;;5008370;28;20038;-60
2022/10/03 02:56:41;;;;;;;5.97;1.77;;;11.40;99.90;;;;;;5010554;28;20037;-60
2022/10/03 02:59:27;;;;;;;8.05;1.95;;;11.40;99.90;;;;;;5030254;28;20064;-60
2022/10/03 03:02:26;;;;;;;8.80;1.98;;;11.40;99.90;;;;;;5019796;28;20486;-60
2022/10/03 03:05:10;;;;;;;7.85;1.75;;;11.40;99.90;;;;;;5050175;28;20060;-60
2022/10/03 03:08:23;;;;;;;8.48;1.90;;;11.40;99.90;;;;;;5031054;28;20037;-60
2022/10/03 03:11:26;;;;;;;8.15;1.70;;;11.50;99.90;;;;;;5010401;28;20041;-60
2022/10/03 03:14:15;;;;;;;13.38;2.38;;;11.40;99.90;;;;;;5010430;28;20478;-60
2022/10/03 03:16:51;;;;;;;11.20;1.80;;;11.50;99.90;;;;;;5015657;28;20096;-60
2022/10/03 03:19:47;;;;;;;9.18;1.98;;;11.50;99.90;;;;;;5051211;28;20021;-60
2022/10/03 03:22:26;;;;;;;6.15;1.70;;;11.50;99.90;;;;;;5024810;28;20037;-60
2022/10/03 03:25:20;;;;;;;11.77;1.60;;;11.50;99.90;;;;;;5008279;28;20502;-60
2022/10/03 03:28:10;;;;;;;11.68;2.03;;;11.50;99.90;;;;;;5033842;28;20052;-60
2022/10/03 03:30:44;;;;;;;8.70;2.08;;;11.50;99.90;;;;;;5011945;28;20033;-60
2022/10/03 03:33:20;;;;;;;8.40;1.58;;;11.50;99.90;;;;;;5024806;28;20036;-60
2022/10/03 03:35:59;;;;;;;11.10;2.47;;;11.50;99.90;;;;;;5011323;28;20107;-60
2022/10/03 03:38:50;;;;;;;8.00;2.05;;;11.60;99.90;;;;;;5026406;28;20496;-61
2022/10/03 03:41:37;;;;;;;6.80;1.67;;;11.50;99.90;;;;;;5011145;28;20108;-60
2022/10/03 03:44:13;;;;;;;5.78;1.73;;;11.50;99.90;;;;;;5011268;28;20026;-60
2022/10/03 03:47:11;;;;;;;7.32;1.98;;;11.60;99.90;;;;;;5014093;28;20078;-60
2022/10/03 03:50:13;;;;;;;8.60;1.77;;;11.60;99.90;;;;;;5051148;28;20401;-60
2022/10/03 03:53:05;;;;;;;6.07;1.40;;;11.60;99.90;;;;;;5030037;28;20025;-60
2022/10/03 03:55:47;;;;;;;12.38;1.63;;;11.60;99.90;;;;;;5011050;28;20073;-60
2022/10/03 03:58:32;;;;;;;7.55;1.90;;;11.60;99.90;;;;;;5024138;28;20026;-60
2022/10/03 04:01:19;;;;;;;10.60;2.03;;;11.60;99.90;;;;;;5043123;28;20505;-61
2022/10/03 04:04:07;;;;;;;11.27;3.15;;;11.60;99.90;;;;;;5028966;28;20079;-61
2022/10/03 04:06:50;;;;;;;7.45;2.22;;;11.60;99.90;;;;;;5009890;28;20592;-60
2022/10/03 04:09:37;;;;;;;5.35;2.20;;;11.60;99.90;;;;;;5030762;28;20406;-60
2022/10/03 04:12:25;;;;;;;9.40;2.22;;;11.60;99.90;;;;;;5042879;28;20032;-61
2022/10/03 04:15:28;;;;;;;7.95;2.03;;;11.60;99.90;;;;;;5031002;28;20075;-60
2022/10/03 04:21:38;;;;;;;8.15;1.60;;;11.60;99.90;;;;;;5011053;28;20133;-61
2022/10/03 04:24:26;;;;;;;6.03;1.60;;;11.60;99.90;;;;;;5034685;28;20480;-60
2022/10/03 04:26:51;;;;;;;6.75;2.25;;;11.60;99.90;;;;;;5012252;28;20440;-60
2022/10/03 04:29:24;;;;;;;10.93;1.85;;;11.50;99.90;;;;;;5030580;28;20572;-60
2022/10/03 04:32:22;;;;;;;7.78;1.83;;;11.50;99.90;;;;;;5011751;28;20711;-60
2022/10/03 04:35:10;;;;;;;15.40;2.38;;;11.60;99.90;;;;;;5030506;28;20064;-60
2022/10/03 04:38:04;;;;;;;11.55;1.90;;;11.50;99.90;;;;;;5017758;28;20048;-60
2022/10/03 04:40:38;;;;;;;7.43;1.73;;;11.50;99.90;;;;;;5049346;28;20622;-60
2022/10/03 04:43:14;;;;;;;7.38;1.60;;;11.50;99.90;;;;;;5027831;28;20029;-60
2022/10/03 04:46:15;;;;;;;12.75;2.53;;;11.60;99.90;;;;;;5010518;28;20034;-60
2022/10/03 04:49:00;;;;;;;5.70;1.60;;;11.50;99.90;;;;;;5026166;28;20033;-60
2022/10/03 04:51:53;;;;;;;8.52;1.90;;;11.50;99.90;;;;;;5010380;28;20034;-61
2022/10/03 04:54:47;;;;;;;11.20;1.85;;;11.50;99.90;;;;;;5010441;28;20029;-60
2022/10/03 04:57:41;;;;;;;6.65;1.52;;;11.50;99.90;;;;;;5013354;28;20066;-60
2022/10/03 05:00:27;;;;;;;13.05;1.80;;;11.60;99.90;;;;;;5030072;28;20029;-60
2022/10/03 05:03:21;;;;;;;4.25;1.50;;;11.60;99.90;;;;;;5018941;28;20037;-61
2022/10/03 05:05:59;;;;;;;11.05;1.45;;;11.60;99.90;;;;;;5010142;28;20044;-60
2022/10/03 05:08:40;;;;;;;6.22;1.67;;;11.60;99.90;;;;;;5022974;28;20531;-60
2022/10/03 05:11:38;;;;;;;5.93;1.42;;;11.60;99.90;;;;;;5010165;28;20026;-60
2022/10/03 05:14:25;;;;;;;7.75;2.17;;;11.60;99.90;;;;;;5009968;28;20494;-60
2022/10/03 05:17:06;;;;;;;15.40;2.30;;;11.60;99.90;;;;;;5009768;28;20038;-60
2022/10/03 05:19:40;;;;;;;8.25;1.60;;;11.60;99.90;;;;;;5029570;28;20063;-60
2022/10/03 05:22:42;;;;;;;12.25;2.72;;;11.60;99.90;;;;;;5010935;28;20030;-60
2022/10/03 05:25:33;;;;;;;10.60;1.83;;;11.60;99.90;;;;;;5029735;28;20060;-60
2022/10/03 05:28:28;;;;;;;8.15;2.17;;;11.60;99.90;;;;;;5018310;28;20026;-60
2022/10/03 05:31:14;;;;;;;8.70;2.22;;;11.60;99.90;;;;;;5009764;28;20033;-60
2022/10/03 05:33:59;;;;;;;3.55;1.83;;;11.60;99.90;;;;;;5023949;28;20026;-60
2022/10/03 05:36:42;;;;;;;9.05;1.55;;;11.60;99.90;;;;;;5049317;28;20029;-60
2022/10/03 05:39:30;;;;;;;9.23;1.40;;;11.60;99.90;;;;;;5027388;28;20030;-59
2022/10/03 05:42:25;;;;;;;5.72;1.35;;;11.70;99.90;;;;;;5044814;28;20103;-59
2022/10/03 05:45:02;;;;;;;7.43;1.67;;;11.70;99.90;;;;;;5029376;28;20112;-60
2022/10/03 05:47:44;;;;;;;7.65;1.70;;;11.70;99.90;;;;;;5018884;28;20425;-60
2022/10/03 05:50:15;;;;;;;10.55;1.40;;;11.70;99.90;;;;;;5049024;28;20044;-60
2022/10/03 05:52:44;;;;;;;6.30;1.42;;;11.70;99.90;;;;;;5014806;28;20390;-60
2022/10/03 05:55:35;;;;;;;7.22;1.48;;;11.70;99.90;;;;;;5028946;28;20100;-60
2022/10/03 05:58:24;;;;;;;8.20;1.80;;;11.80;99.90;;;;;;5036312;28;20034;-60
2022/10/03 06:00:56;;;;;;;6.38;2.00;;;11.80;99.90;;;;;;5019579;28;20542;-60
2022/10/03 06:03:40;;;;;;;5.57;1.95;;;11.80;99.90;;;;;;5034088;28;20079;-60
2022/10/03 06:06:41;;;;;;;11.65;2.25;;;11.80;99.90;;;;;;5009177;28;20037;-60
2022/10/03 06:09:42;;;;;;;9.20;1.60;;;11.90;99.90;;;;;;5026177;28;20033;-60
2022/10/03 06:12:13;;;;;;;4.65;1.38;;;11.90;99.90;;;;;;5009682;28;20033;-60
2022/10/03 06:15:20;;;;;;;8.27;1.40;;;12.00;99.90;;;;;;5028725;28;20017;-60
2022/10/03 06:18:13;;;;;;;7.90;2.13;;;12.00;99.90;;;;;;4999326;28;20045;-60
2022/10/03 06:21:15;;;;;;;6.93;1.48;;;12.10;99.90;;;;;;5008816;28;20038;-60
2022/10/03 06:24:00;;;;;;;11.15;1.45;;;12.10;99.90;;;;;;5017918;28;20036;-60
2022/10/03 06:26:54;;;;;;;10.35;1.70;;;12.10;99.90;;;;;;5008853;28;20053;-60
2022/10/03 06:29:56;;;;;;;7.53;1.77;;;12.20;99.90;;;;;;5007787;28;20417;-60
2022/10/03 06:33:00;;;;;;;7.43;1.98;;;12.10;99.90;;;;;;5010985;28;20044;-60
2022/10/03 06:36:03;;;;;;;7.43;1.75;;;12.20;99.90;;;;;;5052006;28;20025;-61
2022/10/03 06:39:25;;;;;;;8.73;1.63;;;12.20;99.90;;;;;;5022367;28;20034;-60
2022/10/03 06:42:09;;;;;;;5.93;1.75;;;12.20;99.90;;;;;;4971458;28;20042;-60
2022/10/03 06:44:41;;;;;;;7.63;1.23;;;12.30;99.90;;;;;;4971398;28;20054;-61
2022/10/03 06:47:43;;;;;;;8.25;1.67;;;12.30;99.90;;;;;;4996881;28;20038;-60
2022/10/03 06:50:25;;;;;;;7.82;1.98;;;12.30;99.90;;;;;;5035894;28;20585;-61
2022/10/03 06:53:25;;;;;;;7.78;1.58;;;12.30;99.90;;;;;;5021364;28;20029;-61
2022/10/03 06:56:00;;;;;;;7.55;1.67;;;12.30;99.90;;;;;;5011653;28;20122;-61
2022/10/03 06:58:49;;;;;;;8.17;1.47;;;12.40;99.90;;;;;;5021328;28;20333;-61
2022/10/03 07:01:32;;;;;;;5.72;1.35;;;12.40;99.90;;;;;;5000549;28;20390;-61
2022/10/03 07:04:34;;;;;;;9.32;1.63;;;12.40;99.90;;;;;;5028829;28;20704;-60
2022/10/03 07:07:26;;;;;;;8.55;1.77;;;12.40;99.90;;;;;;5017560;28;20036;-61
2022/10/03 07:10:16;;;;;;;13.32;2.55;;;12.40;99.90;;;;;;5011193;28;20037;-61
2022/10/03 07:12:53;;;;;;;6.65;1.80;;;12.40;99.90;;;;;;5013655;28;20029;-61
2022/10/03 07:15:43;;;;;;;5.20;1.60;;;12.40;99.90;;;;;;5019504;28;20026;-62
2022/10/03 07:18:20;;;;;;;8.93;1.75;;;12.50;99.90;;;;;;5026896;28;20033;-61
2022/10/03 07:21:12;;;;;;;8.93;1.95;;;12.60;99.90;;;;;;5011047;28;20038;-61
2022/10/03 07:23:47;;;;;;;6.15;1.40;;;12.90;99.90;;;;;;5030683;28;20060;-61
2022/10/03 07:26:45;;;;;;;8.52;1.73;;;13.30;99.90;;;;;;5010881;28;20116;-61
2022/10/03 07:29:26;;;;;;;6.07;1.60;;;13.60;99.90;;;;;;4999791;28;20037;-61
2022/10/03 07:32:10;;;;;;;6.82;1.42;;;13.90;99.90;;;;;;5030708;28;20029;-61
2022/10/03 07:35:13;;;;;;;5.57;1.35;;;14.20;99.90;;;;;;5011424;28;20116;-58
2022/10/03 07:41:13;;;;;;;8.10;1.70;;;14.80;99.90;;;;;;5048121;28;20067;-59
2022/10/03 07:44:12;;;;;;;4.85;1.60;;;15.10;99.90;;;;;;5030419;28;20037;-51
2022/10/03 07:46:52;;;;;;;5.22;1.17;;;15.50;99.90;;;;;;5025546;28;20025;-50
2022/10/03 07:49:41;;;;;;;7.40;1.50;;;16.00;99.90;;;;;;5023624;28;20037;-50
2022/10/03 07:52:14;;;;;;;6.50;1.55;;;16.50;99.90;;;;;;5008294;28;20018;-52
2022/10/03 07:55:11;;;;;;;7.22;1.95;;;16.90;99.90;;;;;;5006506;28;20025;-50
2022/10/03 07:58:13;;;;;;;6.55;1.70;;;17.00;97.10;;;;;;5026391;28;20036;-47
2022/10/03 08:01:26;;;;;;;6.20;1.65;;;17.20;92.20;;;;;;5043541;28;20049;-53
2022/10/03 08:04:19;;;;;;;6.32;1.58;;;17.40;82.70;;;;;;5019750;28;20701;-48
2022/10/03 08:07:09;;;;;;;6.88;1.63;;;17.40;87.10;;;;;;5007788;28;20026;-50
2022/10/03 08:09:44;;;;;;;6.55;1.50;;;17.40;91.70;;;;;;5024984;28;20116;-51
2022/10/03 08:12:39;;;;;;;7.95;2.55;;;17.30;92.50;;;;;;5007720;28;20040;-50
2022/10/03 08:15:20;;;;;;;10.48;2.42;;;17.20;93.40;;;;;;5010297;28;20030;-48
2022/10/03 08:18:05;;;;;;;11.55;2.10;;;17.10;90.70;;;;;;5013394;28;20067;-50
2022/10/03 08:21:02;;;;;;;7.43;1.73;;;17.20;95.40;;;;;;5046834;28;20033;-49
2022/10/03 08:24:00;;;;;;;6.75;1.58;;;17.50;83.80;;;;;;5012932;28;20033;-48
2022/10/03 08:26:54;;;;;;;6.82;1.90;;;17.40;74.00;;;;;;5028706;28;20032;-49
2022/10/03 08:29:29;;;;;;;10.00;2.22;;;17.30;90.80;;;;;;5016016;28;20029;-50
2022/10/03 08:32:16;;;;;;;13.40;1.80;;;17.20;80.30;;;;;;5020701;28;20059;-50
2022/10/03 08:35:00;;;;;;;4.57;1.65;;;17.20;87.80;;;;;;5020141;28;20086;-49
2022/10/03 08:38:08;;;;;;;8.02;1.65;;;17.10;89.80;;;;;;5015239;28;20038;-49
2022/10/03 08:40:55;;;;;;;5.07;1.50;;;17.10;82.60;;;;;;4979914;28;20521;-48
2022/10/03 08:43:51;;;;;;;9.32;2.10;;;17.10;82.40;;;;;;5013554;28;20076;-49
2022/10/03 08:47:02;;;;;;;6.72;1.40;;;17.10;83.20;;;;;;5020333;28;20033;-49
2022/10/03 08:50:05;;;;;;;8.25;1.40;;;17.30;82.70;;;;;;5013712;28;20600;-47
2022/10/03 08:53:02;;;;;;;4.53;1.67;;;17.50;72.90;;;;;;5017192;28;20146;-49
2022/10/03 08:55:46;;;;;;;6.45;1.65;;;17.80;69.90;;;;;;5000394;28;20073;-48
2022/10/03 08:58:25;;;;;;;7.57;1.70;;;17.70;70.60;;;;;;5014006;28;20025;-51
2022/10/03 09:01:17;;;;;;;5.65;1.77;;;17.50;75.90;;;;;;5031466;28;20045;-49
2022/10/03 09:04:25;;;;;;;7.03;1.90;;;17.50;74.00;;;;;;5043294;28;20037;-49
2022/10/03 09:06:59;;;;;;;7.63;2.08;;;17.50;69.10;;;;;;5006351;28;20033;-52
2022/10/03 09:09:37;;;;;;;6.53;2.13;;;17.50;73.70;;;;;;5020862;28;20497;-49
2022/10/03 09:12:46;;;;;;;1.98;1.10;;;17.50;75.20;;;;;;5006167;28;20536;-48
2022/10/03 09:15:17;;;;;;;5.75;1.50;;;17.70;73.60;;;;;;5006923;28;20079;-50
2022/10/03 09:17:49;;;;;;;7.50;1.83;;;17.90;67.00;;;;;;5029781;28;20025;-50
2022/10/03 09:20:46;;;;;;;7.68;2.08;;;17.70;65.90;;;;;;5026786;28;20021;-51
2022/10/03 09:23:34;;;;;;;5.80;1.58;;;17.60;64.30;;;;;;5013279;28;20128;-60
2022/10/03 09:26:44;;;;;;;8.02;1.50;;;17.60;69.90;;;;;;5008619;28;20022;-60
2022/10/03 09:29:24;;;;;;;10.77;2.13;;;17.80;68.70;;;;;;5020257;28;20029;-60
2022/10/03 09:32:19;;;;;;;7.20;2.00;;;17.70;67.10;;;;;;5008603;28;20129;-61
2022/10/03 09:35:06;;;;;;;7.10;1.85;;;17.60;66.20;;;;;;5024767;28;20061;-60
2022/10/03 09:38:09;;;;;;;8.80;2.00;;;17.20;69.20;;;;;;5008374;28;20448;-60
2022/10/03 09:40:48;;;;;;;9.70;2.22;;;16.90;63.70;;;;;;5008572;28;20026;-60
2022/10/03 09:43:42;;;;;;;9.27;1.88;;;16.70;67.00;;;;;;5017479;28;20045;-61
2022/10/03 09:46:41;;;;;;;9.80;2.47;;;16.60;66.80;;;;;;5028621;28;20033;-61
2022/10/03 09:49:39;;;;;;;4.47;1.45;;;16.90;67.90;;;;;;5031445;28;20408;-61
2022/10/03 09:52:45;;;;;;;11.23;2.60;;;17.30;64.60;;;;;;5008117;28;20179;-59
2022/10/03 09:55:26;;;;;;;7.93;2.27;;;17.60;66.80;;;;;;5020066;28;20036;-59
2022/10/03 09:58:32;;;;;;;6.65;2.22;;;17.90;64.30;;;;;;5009178;28;20546;-59
2022/10/03 10:01:29;;;;;;;11.77;2.28;;;18.20;61.10;;;;;;5041209;28;20116;-58
2022/10/03 10:04:22;;;;;;;6.95;1.95;;;18.20;59.40;;;;;;5027222;28;20397;-58
2022/10/03 10:07:25;;;;;;;8.07;1.85;;;18.20;60.50;;;;;;5017734;28;20025;-59
2022/10/03 10:10:16;;;;;;;6.22;1.83;;;18.20;58.00;;;;;;5024533;28;20544;-60
2022/10/03 10:13:05;;;;;;;5.40;1.70;;;18.20;59.40;;;;;;5020287;28;20033;-58
2022/10/03 10:16:02;;;;;;;7.78;1.80;;;18.30;58.70;;;;;;5027929;28;20029;-59
2022/10/03 10:18:30;;;;;;;6.43;1.67;;;18.20;55.50;;;;;;5025663;28;20104;-59
2022/10/03 10:21:20;;;;;;;8.57;1.85;;;18.20;56.90;;;;;;5027668;28;20047;-58
2022/10/03 10:24:25;;;;;;;7.35;1.90;;;18.10;54.50;;;;;;5024717;28;20033;-59
2022/10/03 10:27:21;;;;;;;5.40;1.85;;;18.20;56.80;;;;;;5020705;28;20026;-59
2022/10/03 10:30:01;;;;;;;5.60;1.90;;;18.20;57.80;;;;;;5022018;28;20077;-59
2022/10/03 10:32:57;;;;;;;7.85;2.08;;;18.10;59.60;;;;;;5007749;28;20022;-58
2022/10/03 10:35:48;;;;;;;5.65;1.90;;;18.10;54.40;;;;;;5006687;28;20042;-59
2022/10/03 10:38:29;;;;;;;10.23;2.13;;;17.90;53.20;;;;;;5017656;28;20025;-59
2022/10/03 10:41:36;;;;;;;5.40;1.63;;;17.90;53.90;;;;;;5024906;28;20079;-58
2022/10/03 10:44:27;;;;;;;8.48;2.33;;;18.00;56.70;;;;;;5024184;28;20045;-58
2022/10/03 10:47:30;;;;;;;8.45;2.13;;;17.70;57.40;;;;;;5023991;28;20044;-59
2022/10/03 10:50:15;;;;;;;9.68;1.90;;;17.60;58.50;;;;;;5010859;28;20046;-60
2022/10/03 10:52:58;;;;;;;3.75;1.70;;;17.50;57.80;;;;;;5019488;28;20029;-61
2022/10/03 10:56:05;;;;;;;11.13;2.17;;;17.40;60.30;;;;;;5024863;28;20042;-61
2022/10/03 10:59:17;;;;;;;10.18;2.20;;;17.30;59.70;;;;;;5018291;28;20061;-61
2022/10/03 11:02:03;;;;;;;8.00;1.90;;;17.50;61.00;;;;;;5025688;28;20057;-61
2022/10/03 11:05:25;;;;;;;4.88;1.73;;;17.60;61.60;;;;;;5018265;28;20056;-60
2022/10/03 11:08:26;;;;;;;8.98;2.22;;;17.70;60.10;;;;;;5018277;28;20033;-60
2022/10/03 11:11:10;;;;;;;8.60;1.85;;;17.80;58.30;;;;;;5024588;28;20033;-61
2022/10/03 11:13:54;;;;;;;7.75;1.98;;;18.00;60.00;;;;;;5029035;28;20086;-60
2022/10/03 11:16:57;;;;;;;8.35;1.83;;;18.20;57.10;;;;;;5035766;28;20025;-61
2022/10/03 11:19:29;;;;;;;9.55;1.77;;;18.30;58.00;;;;;;5025746;28;20512;-60
2022/10/03 11:22:32;;;;;;;7.40;2.20;;;18.40;57.20;;;;;;5016252;28;20428;-61
2022/10/03 11:25:18;;;;;;;5.65;1.83;;;18.50;54.30;;;;;;5019580;28;20045;-61
2022/10/03 11:28:10;;;;;;;8.98;1.90;;;18.40;56.20;;;;;;5028258;28;20040;-61
2022/10/03 11:31:24;;;;;;;7.07;2.28;;;18.50;55.60;;;;;;5009016;28;20531;-61
2022/10/03 11:34:06;;;;;;;5.95;1.58;;;18.50;54.30;;;;;;5025345;28;20078;-59
2022/10/03 11:36:48;;;;;;;6.13;1.40;;;18.50;56.70;;;;;;5027353;28;20029;-60
2022/10/03 11:39:25;;;;;;;5.82;1.52;;;18.40;52.90;;;;;;5025609;28;20045;-60
2022/10/03 11:42:26;;;;;;;7.78;2.25;;;18.40;56.30;;;;;;5025372;28;20033;-60
2022/10/03 11:45:01;;;;;;;9.65;1.67;;;18.40;52.40;;;;;;5025990;28;20122;-60
2022/10/03 11:47:42;;;;;;;5.32;1.52;;;18.40;51.90;;;;;;5027705;28;20817;-61
2022/10/03 11:50:29;;;;;;;9.57;1.45;;;18.40;53.40;;;;;;5027639;28;20046;-59
2022/10/03 11:53:49;;;;;;;4.80;1.60;;;18.40;53.20;;;;;;5029090;28;20026;-60
2022/10/03 11:56:35;;;;;;;3.30;1.45;;;18.50;54.40;;;;;;4994551;28;20055;-60
2022/10/03 11:59:23;;;;;;;4.38;1.30;;;18.70;55.30;;;;;;5026010;28;20041;-60
2022/10/03 12:02:34;;;;;;;4.25;1.45;;;18.80;52.20;;;;;;5031415;28;20815;-60
2022/10/03 12:05:11;;;;;;;6.82;1.40;;;18.80;52.40;;;;;;5022184;28;20063;-60
2022/10/03 12:10:43;;;;;;;7.28;1.63;;;19.00;54.90;;;;;;5018579;28;20111;-61
2022/10/03 12:13:17;;;;;;;5.93;1.67;;;19.00;55.20;;;;;;5017817;28;20472;-61
2022/10/03 12:15:53;;;;;;;7.82;2.03;;;19.00;55.80;;;;;;5036680;28;20048;-60
2022/10/03 12:18:28;;;;;;;5.72;1.88;;;18.70;55.20;;;;;;5035928;28;20091;-60
2022/10/03 12:21:12;;;;;;;7.22;1.75;;;18.70;55.80;;;;;;5032693;28;20029;-60
2022/10/03 12:24:17;;;;;;;6.85;1.67;;;18.80;54.40;;;;;;5034677;28;20105;-59
2022/10/03 12:27:23;;;;;;;5.75;1.63;;;18.70;54.50;;;;;;5030009;28;20049;-60
2022/10/03 12:29:57;;;;;;;5.32;1.40;;;18.60;56.40;;;;;;5020658;28;20589;-59
2022/10/03 12:32:58;;;;;;;4.93;1.25;;;18.50;56.70;;;;;;5048617;28;20033;-61
2022/10/03 12:35:51;;;;;;;4.80;1.30;;;18.30;57.80;;;;;;5025999;28;20041;-59
2022/10/03 12:38:36;;;;;;;2.58;1.10;;;18.30;59.80;;;;;;5008797;28;20044;-60
2022/10/03 12:41:41;;;;;;;3.97;1.20;;;18.30;60.30;;;;;;5029293;28;20021;-60
2022/10/03 12:44:16;;;;;;;4.00;1.33;;;18.30;60.90;;;;;;5023362;28;20032;-59
2022/10/03 12:46:58;;;;;;;4.55;1.10;;;18.20;61.00;;;;;;5009117;28;20088;-60
2022/10/03 12:49:49;;;;;;;4.30;1.05;;;18.30;61.80;;;;;;5025484;28;20112;-59
2022/10/03 12:52:26;;;;;;;4.30;1.40;;;18.30;60.10;;;;;;5017045;28;20035;-59
2022/10/03 12:55:25;;;;;;;4.20;1.10;;;18.20;60.50;;;;;;5015917;28;20698;-60
2022/10/03 12:58:16;;;;;;;3.00;1.02;;;18.10;60.30;;;;;;5027130;28;20033;-58
2022/10/03 13:01:12;;;;;;;3.13;0.95;;;18.10;62.00;;;;;;5016515;28;20041;-59
2022/10/03 13:03:59;;;;;;;3.47;0.90;;;18.10;62.90;;;;;;5000171;28;20634;-59
2022/10/03 13:06:32;;;;;;;4.38;1.50;;;18.00;62.70;;;;;;5030055;28;20310;-60
2022/10/03 13:09:17;;;;;;;3.90;1.02;;;17.80;63.60;;;;;;5034070;28;20037;-59
2022/10/03 13:12:06;;;;;;;4.68;1.40;;;17.70;66.40;;;;;;5026187;28;20044;-59
2022/10/03 13:15:22;;;;;;;5.22;1.05;;;17.70;66.90;;;;;;5022928;28;20623;-59
2022/10/03 13:17:59;;;;;;;7.63;1.58;;;17.70;67.90;;;;;;5020060;28;20029;-59
2022/10/03 13:20:36;;;;;;;5.25;1.60;;;17.60;67.50;;;;;;5020265;28;20063;-59
2022/10/03 13:23:33;;;;;;;5.10;1.60;;;17.60;67.40;;;;;;5015148;28;20584;-57
2022/10/03 13:26:25;;;;;;;5.18;1.23;;;17.50;68.00;;;;;;5008299;28;20045;-58
2022/10/03 13:29:16;;;;;;;4.75;1.40;;;17.40;68.70;;;;;;5033914;28;20544;-59
2022/10/03 13:32:10;;;;;;;5.53;1.42;;;17.30;68.10;;;;;;5032153;28;20723;-59
2022/10/03 13:34:58;;;;;;;3.88;1.13;;;17.30;68.60;;;;;;5021499;28;20029;-51
2022/10/03 13:37:43;;;;;;;3.95;1.08;;;17.30;68.00;;;;;;5021872;28;20044;-54
2022/10/03 13:40:16;;;;;;;6.50;1.80;;;17.40;66.20;;;;;;5019119;28;20091;-52
2022/10/03 13:42:46;;;;;;;3.10;1.45;;;17.40;65.60;;;;;;5031688;28;20033;-49
2022/10/03 13:45:19;;;;;;;6.90;1.55;;;17.40;65.30;;;;;;5028755;28;20083;-61
2022/10/03 13:48:10;;;;;;;6.95;2.22;;;17.40;64.00;;;;;;5025320;28;20061;-61
2022/10/03 13:50:47;;;;;;;4.93;1.58;;;17.40;64.20;;;;;;5022224;28;20073;-61
2022/10/03 13:53:42;;;;;;;4.95;1.65;;;17.40;65.00;;;;;;5019751;28;20034;-61
2022/10/03 13:56:37;;;;;;;6.28;2.00;;;17.30;65.10;;;;;;5019292;28;20029;-60
2022/10/03 13:59:27;;;;;;;7.90;2.50;;;17.20;64.80;;;;;;5023095;28;20021;-61
2022/10/03 14:01:59;;;;;;;11.10;2.10;;;17.10;66.20;;;;;;5040888;28;20499;-61
2022/10/03 14:04:34;;;;;;;5.25;1.60;;;16.90;68.00;;;;;;5018856;28;20021;-61
2022/10/03 14:07:13;;;;;;;6.03;1.35;;;16.80;69.50;;;;;;5020236;28;20554;-60
2022/10/03 14:10:16;;;;;;;5.10;1.50;;;16.60;74.80;;;;;;5022644;28;20124;-61
2022/10/03 14:13:10;;;;;;;5.45;1.20;;;16.50;75.80;;;;;;5040384;28;20105;-60
2022/10/03 14:15:42;;;;;;;7.85;1.85;;;16.40;81.20;;;;;;5021709;28;20065;-60
2022/10/03 14:18:43;;;;;;;2.97;1.50;;;16.30;78.70;;;;;;5025078;28;20397;-58
2022/10/03 14:21:27;;;;;;;5.65;1.67;;;16.40;79.90;;;;;;5006354;28;20026;-60
2022/10/03 14:24:00;;;;;;;3.22;1.10;;;16.50;79.10;;;;;;5029043;28;20032;-61
2022/10/03 14:26:56;;;;;;;4.70;1.45;;;16.50;79.90;;;;;;5047428;28;20662;-60
2022/10/03 14:29:52;;;;;;;3.38;1.02;;;16.60;81.10;;;;;;5019778;28;20107;-61
2022/10/03 14:32:37;;;;;;;6.32;1.60;;;16.60;78.40;;;;;;5007827;28;20657;-61
2022/10/03 14:35:29;;;;;;;4.45;1.58;;;16.60;76.40;;;;;;5017736;28;20030;-62
2022/10/03 14:38:20;;;;;;;5.63;1.52;;;16.60;75.30;;;;;;5007916;28;20030;-60
2022/10/03 14:40:50;;;;;;;3.25;1.65;;;16.60;74.60;;;;;;5023779;28;20480;-60
2022/10/03 14:43:16;;;;;;;7.88;1.80;;;16.70;72.20;;;;;;5007953;28;20029;-61
2022/10/03 14:45:51;;;;;;;4.47;1.50;;;16.70;70.80;;;;;;5027136;28;20037;-61
2022/10/03 14:48:36;;;;;;;3.38;1.23;;;16.60;70.60;;;;;;5008655;28;20102;-60
2022/10/03 14:51:07;;;;;;;5.07;1.70;;;16.50;70.10;;;;;;5008405;28;20581;-61